Time;durP1;ratioP1;P1;durP2;ratioP2;P2;SDS_P1;SDS_P2;PMS_P1;PMS_P2;Temp;Humidity;BMP_temperature;BMP_pressure;BME280_temperature;BME280_humidity;BME280_pressure;Samples;Min_cycle;Max_cycle;Signal;HPM_P1;HPM_P2
2021/01/07 00:02:08;;;;;;;21.05;9.70;;;;;;;-0.71;100.00;95955.47;5047265;28;20091;-46
2021/01/07 00:04:35;;;;;;;31.02;12.70;;;;;;;-0.72;100.00;95957.22;5041692;28;20048;-51
2021/01/07 00:07:02;;;;;;;33.63;15.23;;;;;;;-0.64;100.00;95969.72;5055017;28;20507;-48
2021/01/07 00:09:29;;;;;;;35.47;16.65;;;;;;;-0.57;100.00;95970.19;5051200;28;20060;-49
2021/01/07 00:11:56;;;;;;;22.40;10.52;;;;;;;-0.61;100.00;95969.53;5052240;28;20135;-48
2021/01/07 00:14:23;;;;;;;28.00;12.73;;;;;;;-0.61;100.00;95964.38;5054974;28;20110;-47
2021/01/07 00:16:50;;;;;;;29.02;13.13;;;;;;;-0.62;100.00;95967.03;5057083;28;20039;-49
2021/01/07 00:19:17;;;;;;;25.88;11.30;;;;;;;-0.55;100.00;95963.16;5049552;28;20102;-47
2021/01/07 00:21:44;;;;;;;29.73;13.05;;;;;;;-0.49;100.00;95970.56;5045618;28;20037;-54
2021/01/07 00:24:11;;;;;;;19.88;8.65;;;;;;;-0.60;100.00;95967.78;5046311;28;20148;-47
2021/01/07 00:26:39;;;;;;;25.75;11.95;;;;;;;-0.52;100.00;95978.53;5048856;28;20049;-48
2021/01/07 00:29:06;;;;;;;23.13;10.70;;;;;;;-0.46;100.00;95973.00;5051068;28;20466;-47
2021/01/07 00:31:33;;;;;;;27.70;13.40;;;;;;;-0.43;100.00;95974.56;5033829;28;20080;-49
2021/01/07 00:34:00;;;;;;;22.73;10.02;;;;;;;-0.42;100.00;95978.81;5039020;28;20041;-51
2021/01/07 00:36:27;;;;;;;27.65;10.98;;;;;;;-0.49;100.00;95976.59;5031298;28;20602;-49
2021/01/07 00:38:54;;;;;;;19.33;9.13;;;;;;;-0.41;100.00;95976.16;5038748;28;20045;-50
2021/01/07 00:41:21;;;;;;;19.23;8.48;;;;;;;-0.45;100.00;95977.25;5048645;28;20041;-52
2021/01/07 00:43:49;;;;;;;27.90;12.80;;;;;;;-0.48;100.00;95985.22;5046908;28;20052;-47
2021/01/07 00:46:17;;;;;;;32.42;14.55;;;;;;;-0.44;100.00;95983.28;5021801;28;20085;-46
2021/01/07 00:48:44;;;;;;;37.65;15.45;;;;;;;-0.46;100.00;95979.94;5038526;28;20052;-53
2021/01/07 00:51:11;;;;;;;32.75;13.45;;;;;;;-0.48;100.00;95980.03;5035122;28;20041;-48
2021/01/07 00:53:38;;;;;;;33.22;14.90;;;;;;;-0.42;100.00;95977.06;5024979;28;20049;-47
2021/01/07 00:56:07;;;;;;;28.88;13.60;;;;;;;-0.45;100.00;95977.25;5043827;28;20045;-48
2021/01/07 00:58:38;;;;;;;28.73;12.82;;;;;;;-0.36;100.00;95974.13;5020533;28;20063;-49
2021/01/07 01:01:06;;;;;;;21.17;10.20;;;;;;;-0.42;100.00;95984.84;5029567;28;20038;-46
2021/01/07 01:03:33;;;;;;;23.40;11.27;;;;;;;-0.40;100.00;95977.81;5043421;28;20068;-50
2021/01/07 01:05:59;;;;;;;24.15;11.07;;;;;;;-0.32;100.00;95980.78;5044255;28;20123;-49
2021/01/07 01:08:26;;;;;;;18.83;8.52;;;;;;;-0.34;100.00;95980.06;5030794;28;20053;-54
2021/01/07 01:10:53;;;;;;;29.77;14.98;;;;;;;-0.25;100.00;95989.88;5029323;28;20041;-53
2021/01/07 01:13:20;;;;;;;27.45;12.23;;;;;;;-0.24;100.00;95988.13;5028787;28;20053;-50
2021/01/07 01:15:47;;;;;;;26.75;12.10;;;;;;;-0.28;100.00;95990.03;5043225;28;20272;-53
2021/01/07 01:22:15;;;;;;;23.00;11.10;;;;;;;-0.23;100.00;95996.72;5039804;28;20047;-49
2021/01/07 01:24:41;;;;;;;17.55;9.38;;;;;;;-0.14;100.00;95998.75;5040277;28;20107;-55
2021/01/07 01:27:08;;;;;;;19.17;9.23;;;;;;;-0.11;100.00;95994.22;5031434;28;20569;-53
2021/01/07 01:29:35;;;;;;;27.52;12.38;;;;;;;-0.06;100.00;95994.81;5032775;28;20380;-55
2021/01/07 01:32:03;;;;;;;28.30;13.35;;;;;;;-0.05;100.00;95999.06;5038360;28;20519;-48
2021/01/07 01:34:30;;;;;;;20.63;10.63;;;;;;;-0.07;100.00;95998.31;5016801;28;20599;-48
2021/01/07 01:37:04;;;;;;;25.75;12.32;;;;;;;-0.05;100.00;96004.22;5039792;28;20054;-51
2021/01/07 01:39:31;;;;;;;26.95;12.95;;;;;;;-0.01;100.00;96002.28;5037039;28;20091;-48
2021/01/07 01:41:58;;;;;;;33.60;15.20;;;;;;;-0.03;100.00;96006.75;5035032;28;20053;-48
2021/01/07 01:44:25;;;;;;;27.75;12.52;;;;;;;-0.05;100.00;96006.81;5020726;28;20099;-50
2021/01/07 01:46:52;;;;;;;29.17;13.77;;;;;;;-0.09;100.00;96009.69;5033602;28;20053;-51
2021/01/07 01:49:20;;;;;;;23.60;12.02;;;;;;;-0.16;100.00;96005.81;5042561;28;20057;-53
2021/01/07 01:51:49;;;;;;;33.08;15.35;;;;;;;-0.04;100.00;96010.25;5039048;28;20116;-47
2021/01/07 01:54:16;;;;;;;25.88;11.55;;;;;;;-0.11;100.00;96006.34;5037226;28;20080;-51
2021/01/07 01:56:46;;;;;;;25.02;12.18;;;;;;;-0.12;100.00;96005.53;5039365;28;20033;-46
2021/01/07 01:59:13;;;;;;;29.40;14.20;;;;;;;-0.07;100.00;96006.09;5043865;28;20503;-50
2021/01/07 02:01:40;;;;;;;29.45;15.00;;;;;;;-0.10;100.00;96002.88;5041976;28;20073;-54
2021/01/07 02:04:07;;;;;;;21.30;9.27;;;;;;;-0.06;100.00;96005.16;5042265;28;20465;-48
2021/01/07 02:06:35;;;;;;;30.13;13.50;;;;;;;-0.09;100.00;96001.94;5047508;28;20063;-50
2021/01/07 02:09:06;;;;;;;19.95;9.38;;;;;;;-0.10;100.00;96000.28;5040597;28;20068;-49
2021/01/07 02:11:33;;;;;;;26.92;11.90;;;;;;;-0.05;100.00;95995.63;5034093;28;20049;-50
2021/01/07 02:14:01;;;;;;;21.42;9.25;;;;;;;-0.07;100.00;95995.72;5049636;28;20044;-47
2021/01/07 02:16:28;;;;;;;30.60;14.50;;;;;;;0.02;100.00;95996.94;5040868;28;20044;-50
2021/01/07 02:18:56;;;;;;;34.50;16.58;;;;;;;0.03;100.00;96008.97;5037803;28;20068;-50
2021/01/07 02:21:24;;;;;;;27.65;13.93;;;;;;;0.01;100.00;95997.03;5038468;28;20080;-51
2021/01/07 02:23:52;;;;;;;29.35;15.15;;;;;;;0.05;100.00;95988.16;5018619;28;20076;-49
2021/01/07 02:26:20;;;;;;;27.98;12.10;;;;;;;0.02;100.00;95993.50;5026322;28;20056;-53
2021/01/07 02:28:48;;;;;;;23.83;10.65;;;;;;;-0.04;100.00;95994.69;5013796;28;20042;-50
2021/01/07 02:31:15;;;;;;;27.67;13.55;;;;;;;-0.03;100.00;95992.03;5033016;28;20095;-51
2021/01/07 02:33:42;;;;;;;33.15;16.95;;;;;;;-0.03;100.00;95989.44;5037025;28;20079;-52
2021/01/07 02:36:09;;;;;;;28.00;13.02;;;;;;;-0.04;100.00;95995.53;5037188;28;20049;-51
2021/01/07 02:38:37;;;;;;;28.38;15.38;;;;;;;-0.01;100.00;95992.75;5040219;28;20127;-50
2021/01/07 02:41:05;;;;;;;33.88;16.02;;;;;;;0.00;100.00;95993.63;5039259;28;20041;-54
2021/01/07 02:43:32;;;;;;;33.70;15.82;;;;;;;0.01;100.00;95997.03;5037246;28;20076;-49
2021/01/07 02:45:59;;;;;;;31.20;14.43;;;;;;;0.02;100.00;95991.75;5031542;28;20136;-50
2021/01/07 02:48:26;;;;;;;22.90;11.18;;;;;;;-0.05;100.00;95996.47;5034463;28;20517;-53
2021/01/07 02:50:53;;;;;;;35.53;15.52;;;;;;;0.07;100.00;95988.88;5029088;28;20060;-55
2021/01/07 02:53:20;;;;;;;33.97;15.18;;;;;;;0.03;100.00;95993.41;5044475;28;20048;-50
2021/01/07 02:55:48;;;;;;;29.40;13.30;;;;;;;0.07;100.00;95984.53;5038392;28;20535;-52
2021/01/07 02:58:35;;;;;;;13.38;6.70;;;;;;;0.01;100.00;95992.69;5040610;28;20045;-47
2021/01/07 03:01:03;;;;;;;30.40;13.63;;;;;;;0.06;100.00;95984.63;5037151;28;20037;-52
2021/01/07 03:03:30;;;;;;;31.05;15.02;;;;;;;0.00;100.00;95988.44;5034759;28;20041;-54
2021/01/07 03:05:57;;;;;;;25.10;12.60;;;;;;;0.04;100.00;95984.72;5041210;28;20427;-54
2021/01/07 03:08:23;;;;;;;24.95;10.32;;;;;;;0.02;100.00;95989.16;5040185;28;20481;-54
2021/01/07 03:10:51;;;;;;;39.13;16.50;;;;;;;0.09;100.00;95982.66;5038955;28;20619;-52
2021/01/07 03:13:18;;;;;;;27.85;12.88;;;;;;;-0.02;100.00;95982.50;5047908;28;20128;-53
2021/01/07 03:15:45;;;;;;;24.33;11.45;;;;;;;0.01;100.00;95977.13;5035101;28;20045;-51
2021/01/07 03:18:12;;;;;;;28.33;12.68;;;;;;;0.06;100.00;95975.06;5038028;28;20052;-53
2021/01/07 03:20:39;;;;;;;32.17;15.60;;;;;;;0.09;100.00;95974.91;5035242;28;20117;-53
2021/01/07 03:23:06;;;;;;;27.02;11.98;;;;;;;0.03;100.00;95979.63;5042819;28;20041;-52
2021/01/07 03:25:33;;;;;;;24.75;11.90;;;;;;;0.07;100.00;95975.91;5035839;28;20114;-55
2021/01/07 03:28:01;;;;;;;27.38;12.02;;;;;;;0.05;100.00;95982.97;5044736;28;20052;-49
2021/01/07 03:30:28;;;;;;;28.80;13.23;;;;;;;0.04;100.00;95976.13;5041834;28;20125;-52
2021/01/07 03:32:56;;;;;;;23.83;11.15;;;;;;;0.03;100.00;95996.00;5034296;28;20060;-50
2021/01/07 03:35:23;;;;;;;23.83;11.35;;;;;;;-0.03;100.00;95983.44;5045172;28;20049;-54
2021/01/07 03:37:50;;;;;;;26.92;13.18;;;;;;;0.07;100.00;95984.53;5018235;28;20051;-49
2021/01/07 03:40:17;;;;;;;16.95;7.65;;;;;;;0.01;100.00;95987.50;5044474;28;20120;-54
2021/01/07 03:42:44;;;;;;;26.60;12.88;;;;;;;-0.02;100.00;95987.69;5043697;28;20049;-56
2021/01/07 03:45:14;;;;;;;21.08;10.27;;;;;;;-0.08;100.00;95988.03;5039117;28;20049;-50
2021/01/07 03:47:41;;;;;;;23.00;11.50;;;;;;;0.03;100.00;95982.22;5045575;28;20075;-49
2021/01/07 03:50:09;;;;;;;25.88;11.52;;;;;;;0.03;100.00;95989.97;5037927;28;20041;-49
2021/01/07 03:52:36;;;;;;;23.05;11.43;;;;;;;0.08;100.00;95988.78;5038826;28;20103;-48
2021/01/07 03:55:04;;;;;;;24.10;11.05;;;;;;;0.07;100.00;95992.31;5039348;28;20041;-50
2021/01/07 03:57:31;;;;;;;23.23;11.38;;;;;;;0.15;100.00;95990.09;5039566;28;20633;-54
2021/01/07 03:59:58;;;;;;;22.55;10.63;;;;;;;0.08;100.00;95990.56;5043532;28;20128;-51
2021/01/07 04:02:26;;;;;;;28.83;12.02;;;;;;;0.12;100.00;95992.03;5037635;28;20040;-50
2021/01/07 04:04:52;;;;;;;29.83;15.18;;;;;;;0.10;100.00;95999.06;5025062;28;20077;-49
2021/01/07 04:07:19;;;;;;;21.67;10.50;;;;;;;0.06;100.00;96003.59;5036603;28;20111;-53
2021/01/07 04:09:46;;;;;;;33.53;15.43;;;;;;;0.11;100.00;96006.75;5018256;28;20136;-50
2021/01/07 04:12:13;;;;;;;31.58;13.45;;;;;;;0.15;100.00;96002.22;5039261;28;20068;-49
2021/01/07 04:14:59;;;;;;;24.90;11.55;;;;;;;0.02;100.00;96003.88;5032475;28;20551;-48
2021/01/07 04:17:27;;;;;;;23.80;11.63;;;;;;;0.06;100.00;96000.16;5026194;28;20080;-49
2021/01/07 04:19:54;;;;;;;32.63;15.27;;;;;;;0.07;100.00;95996.66;5021643;28;20049;-53
2021/01/07 04:22:21;;;;;;;32.85;15.60;;;;;;;0.16;100.00;95994.34;5012983;28;20052;-48
2021/01/07 04:24:48;;;;;;;24.48;12.75;;;;;;;0.12;100.00;95994.63;5025537;28;20526;-49
2021/01/07 04:27:14;;;;;;;31.00;14.18;;;;;;;0.12;100.00;96005.81;5037651;28;20033;-50
2021/01/07 04:29:44;;;;;;;32.53;16.67;;;;;;;0.02;100.00;95999.53;5021512;28;20531;-55
2021/01/07 04:32:11;;;;;;;28.90;15.23;;;;;;;0.07;100.00;96009.59;5021839;28;20050;-56
2021/01/07 04:34:39;;;;;;;25.27;11.20;;;;;;;0.04;100.00;96002.03;5032627;28;20533;-47
2021/01/07 04:37:06;;;;;;;22.98;11.25;;;;;;;0.04;100.00;96008.06;5040335;28;20098;-49
2021/01/07 04:39:33;;;;;;;20.73;9.90;;;;;;;-0.04;100.00;96010.25;5045902;28;20452;-49
2021/01/07 04:42:00;;;;;;;23.55;11.70;;;;;;;-0.02;100.00;96013.59;5040520;28;20057;-53
2021/01/07 04:44:27;;;;;;;16.02;7.82;;;;;;;-0.07;100.00;96005.25;5022487;28;20569;-54
2021/01/07 04:46:54;;;;;;;24.10;11.75;;;;;;;0.12;100.00;96012.78;5033994;28;20050;-56
2021/01/07 04:49:21;;;;;;;26.35;12.32;;;;;;;0.12;100.00;96013.59;5025287;28;20486;-51
2021/01/07 04:51:49;;;;;;;20.42;10.43;;;;;;;0.06;100.00;96013.97;5035275;28;20046;-56
2021/01/07 04:54:17;;;;;;;25.50;13.38;;;;;;;0.03;100.00;96006.38;5040331;28;20114;-53
2021/01/07 04:56:44;;;;;;;15.07;7.15;;;;;;;-0.04;100.00;96005.91;5042507;28;20044;-49
2021/01/07 04:59:12;;;;;;;26.08;13.68;;;;;;;-0.11;100.00;96001.16;5024703;28;20057;-51
2021/01/07 05:01:41;;;;;;;13.75;7.82;;;;;;;-0.26;100.00;96014.13;5041286;28;20041;-52
2021/01/07 05:04:09;;;;;;;26.02;12.93;;;;;;;-0.24;100.00;96014.03;5035981;28;20132;-47
2021/01/07 05:06:36;;;;;;;23.60;11.30;;;;;;;-0.27;100.00;96020.22;5040927;28;20098;-51
2021/01/07 05:09:06;;;;;;;23.58;11.30;;;;;;;-0.27;100.00;96015.03;5047422;28;20136;-50
2021/01/07 05:11:34;;;;;;;24.58;12.13;;;;;;;-0.25;100.00;96018.34;5039569;28;20037;-54
2021/01/07 05:14:02;;;;;;;22.80;12.52;;;;;;;-0.14;100.00;96022.06;5056577;28;20037;-50
2021/01/07 05:16:29;;;;;;;20.55;11.63;;;;;;;-0.10;100.00;96013.22;5045301;28;20072;-49
2021/01/07 05:18:56;;;;;;;21.42;10.50;;;;;;;-0.16;100.00;96017.00;5038026;28;20102;-54
2021/01/07 05:21:24;;;;;;;14.50;7.53;;;;;;;-0.29;100.00;96011.69;5021235;28;20046;-51
2021/01/07 05:23:52;;;;;;;22.80;10.52;;;;;;;-0.26;100.00;96016.69;5019413;28;20452;-52
2021/01/07 05:26:21;;;;;;;22.42;11.00;;;;;;;-0.26;100.00;96016.69;5024350;28;20575;-47
2021/01/07 05:28:49;;;;;;;21.10;9.10;;;;;;;-0.26;100.00;96016.69;5029792;28;20071;-54
2021/01/07 05:31:18;;;;;;;21.95;10.18;;;;;;;-0.22;100.00;96012.16;5035767;28;20045;-54
2021/01/07 05:33:45;;;;;;;23.77;10.77;;;;;;;-0.19;100.00;96016.34;5036292;28;20037;-51
2021/01/07 05:36:31;;;;;;;21.10;10.77;;;;;;;-0.15;100.00;96023.84;5035991;28;20507;-53
2021/01/07 05:39:04;;;;;;;21.13;10.02;;;;;;;-0.12;100.00;96012.47;5045890;28;20079;-50
2021/01/07 05:41:32;;;;;;;25.95;11.82;;;;;;;-0.10;100.00;96021.00;5050999;28;20099;-55
2021/01/07 05:44:00;;;;;;;23.58;11.77;;;;;;;-0.05;100.00;96017.19;5046536;28;20124;-55
2021/01/07 05:46:29;;;;;;;19.52;9.57;;;;;;;-0.05;100.00;96019.78;5052006;28;20157;-48
2021/01/07 05:48:56;;;;;;;19.48;10.77;;;;;;;0.01;100.00;96017.78;5037517;28;20508;-52
2021/01/07 05:51:27;;;;;;;23.73;12.43;;;;;;;0.09;100.00;96013.78;5043063;28;20504;-57
2021/01/07 05:53:55;;;;;;;25.42;11.00;;;;;;;0.08;100.00;96019.91;5024486;28;20056;-51
2021/01/07 05:56:23;;;;;;;22.52;11.63;;;;;;;0.07;100.00;96018.25;5034636;28;20054;-52
2021/01/07 05:58:52;;;;;;;16.05;8.45;;;;;;;0.06;100.00;96015.72;5016892;28;20123;-55
2021/01/07 06:01:19;;;;;;;20.08;10.00;;;;;;;0.09;100.00;96021.56;5022805;28;20570;-51
2021/01/07 06:03:48;;;;;;;22.65;9.88;;;;;;;0.14;100.00;96019.53;5032691;28;20053;-53
2021/01/07 06:06:16;;;;;;;24.85;12.25;;;;;;;0.11;100.00;96021.47;5038485;28;20041;-50
2021/01/07 06:08:48;;;;;;;27.60;13.10;;;;;;;0.15;100.00;96021.19;5013450;28;20045;-51
2021/01/07 06:11:16;;;;;;;21.60;11.25;;;;;;;0.14;100.00;96019.53;5023772;28;20103;-50
2021/01/07 06:13:44;;;;;;;24.10;11.57;;;;;;;0.11;100.00;96019.72;5033355;28;20038;-50
2021/01/07 06:16:13;;;;;;;18.10;8.05;;;;;;;0.12;100.00;96020.56;5038957;28;20045;-50
2021/01/07 06:18:40;;;;;;;22.02;10.77;;;;;;;0.26;100.00;96028.31;5023520;28;20038;-48
2021/01/07 06:21:08;;;;;;;20.80;11.05;;;;;;;0.21;100.00;96036.41;5026524;28;20096;-50
2021/01/07 06:23:43;;;;;;;27.13;12.57;;;;;;;0.16;100.00;96025.44;5009342;28;20052;-49
2021/01/07 06:26:24;;;;;;;24.17;12.60;;;;;;;0.13;100.00;96037.75;5019326;28;20041;-48
2021/01/07 06:28:53;;;;;;;23.20;12.05;;;;;;;0.21;100.00;96033.81;5019287;28;20065;-51
2021/01/07 06:31:21;;;;;;;14.25;7.35;;;;;;;0.17;100.00;96036.66;5038855;28;20088;-53
2021/01/07 06:33:50;;;;;;;28.30;13.15;;;;;;;0.13;100.00;96036.00;5040202;28;20053;-53
2021/01/07 06:36:17;;;;;;;26.38;12.88;;;;;;;0.15;100.00;96031.56;5053283;28;20059;-53
2021/01/07 06:38:51;;;;;;;22.92;10.80;;;;;;;0.15;100.00;96028.16;5048051;28;20036;-49
2021/01/07 06:41:19;;;;;;;23.42;11.57;;;;;;;0.08;100.00;96035.47;5055471;28;20076;-47
2021/01/07 06:43:47;;;;;;;26.95;14.00;;;;;;;0.14;100.00;96034.25;5030360;28;20415;-51
2021/01/07 06:46:43;;;;;;;27.33;12.68;;;;;;;0.18;100.00;96039.16;5030775;28;20426;-52
2021/01/07 06:49:19;;;;;;;26.98;12.23;;;;;;;0.17;100.00;96034.91;5030299;28;20044;-53
2021/01/07 06:51:48;;;;;;;25.92;12.63;;;;;;;0.19;100.00;96042.59;5038429;28;20462;-54
2021/01/07 06:54:16;;;;;;;19.40;8.90;;;;;;;0.16;100.00;96040.19;5042115;28;20148;-50
2021/01/07 06:56:44;;;;;;;25.55;12.00;;;;;;;0.21;100.00;96040.75;5042141;28;20052;-55
2021/01/07 06:59:12;;;;;;;;;;;;;;;0.21;100.00;96046.75;5039376;28;20044;-56
2021/01/07 07:01:47;;;;;;;26.90;12.13;;;;;;;0.27;100.00;96036.94;5024993;28;19920;-53
2021/01/07 07:04:25;;;;;;;26.90;12.40;;;;;;;0.21;100.00;96043.34;5032999;28;20041;-53
2021/01/07 07:06:58;;;;;;;25.27;11.70;;;;;;;0.16;100.00;96033.22;5046833;28;20116;-57
2021/01/07 07:09:26;;;;;;;30.55;13.95;;;;;;;0.28;100.00;96042.03;5040980;28;20462;-57
2021/01/07 07:11:54;;;;;;;31.65;14.77;;;;;;;0.30;100.00;96039.34;5023895;28;20057;-53
2021/01/07 07:14:22;;;;;;;26.25;12.48;;;;;;;0.24;100.00;96048.31;5048264;28;20076;-56
2021/01/07 07:16:50;;;;;;;27.95;13.30;;;;;;;0.28;100.00;96051.59;5015856;28;20656;-54
2021/01/07 07:19:25;;;;;;;29.33;13.07;;;;;;;0.32;100.00;96053.06;5020605;28;20639;-50
2021/01/07 07:22:00;;;;;;;35.13;15.68;;;;;;;0.31;100.00;96054.84;5020219;28;20049;-55
2021/01/07 07:24:35;;;;;;;25.08;11.43;;;;;;;0.35;100.00;96060.66;5031358;28;20056;-55
2021/01/07 07:27:05;;;;;;;29.25;13.95;;;;;;;0.43;100.00;96056.66;5035316;28;20507;-54
2021/01/07 07:29:34;;;;;;;25.23;11.52;;;;;;;0.41;100.00;96060.28;5039792;28;20049;-55
2021/01/07 07:32:06;;;;;;;30.75;13.73;;;;;;;0.51;100.00;96057.97;5022069;28;20045;-55
2021/01/07 07:34:33;;;;;;;28.30;13.23;;;;;;;0.48;100.00;96056.38;5024550;28;20572;-54
2021/01/07 07:37:00;;;;;;;27.20;13.05;;;;;;;0.51;100.00;96069.16;5026558;28;20416;-56
2021/01/07 07:39:28;;;;;;;22.95;10.90;;;;;;;0.43;100.00;96061.03;5040685;28;20045;-58
2021/01/07 07:42:09;;;;;;;28.58;14.57;;;;;;;0.46;100.00;96066.88;5034259;28;20043;-58
2021/01/07 07:44:36;;;;;;;25.50;11.68;;;;;;;0.44;100.00;96079.06;5036797;28;20525;-55
2021/01/07 07:47:04;;;;;;;23.80;11.13;;;;;;;0.49;100.00;96073.63;5031783;28;20045;-55
2021/01/07 07:49:31;;;;;;;29.17;13.32;;;;;;;0.44;100.00;96065.28;5043922;28;20596;-54
2021/01/07 07:51:58;;;;;;;32.63;14.45;;;;;;;0.56;100.00;96069.75;5035775;28;20511;-51
2021/01/07 07:54:25;;;;;;;33.50;14.10;;;;;;;0.64;100.00;96066.66;5045634;28;20123;-56
2021/01/07 07:56:59;;;;;;;28.52;11.65;;;;;;;0.55;100.00;96075.88;5015706;28;20111;-54
2021/01/07 07:59:32;;;;;;;24.43;11.90;;;;;;;0.60;100.00;96072.97;5042862;28;20106;-58
2021/01/07 08:01:59;;;;;;;31.95;14.95;;;;;;;0.76;100.00;96076.31;5031384;28;20045;-53
2021/01/07 08:04:28;;;;;;;29.42;14.40;;;;;;;0.64;100.00;96071.84;5040533;28;20254;-54
2021/01/07 08:06:55;;;;;;;33.80;16.65;;;;;;;0.90;100.00;96085.84;5038306;28;20045;-55
2021/01/07 08:09:22;;;;;;;33.75;15.50;;;;;;;0.97;100.00;96081.13;5045586;28;20041;-53
2021/01/07 08:11:51;;;;;;;30.73;14.68;;;;;;;0.88;100.00;96080.72;5013200;28;643572;-56
2021/01/07 08:14:20;;;;;;;32.30;14.65;;;;;;;1.05;100.00;96084.88;5044378;28;20064;-58
2021/01/07 08:16:49;;;;;;;27.35;13.02;;;;;;;0.90;99.03;96085.84;5039619;28;20574;-57
2021/01/07 08:19:31;;;;;;;34.20;15.68;;;;;;;1.04;98.62;96087.59;5036636;28;20049;-55
2021/01/07 08:21:59;;;;;;;34.60;16.05;;;;;;;1.19;97.40;96087.44;5031761;28;20052;-55
2021/01/07 08:24:26;;;;;;;33.35;15.43;;;;;;;1.43;96.77;96087.66;5034555;28;20125;-53
2021/01/07 08:26:59;;;;;;;32.67;15.95;;;;;;;1.42;95.86;96087.75;5026182;28;20070;-56
2021/01/07 08:29:26;;;;;;;35.88;18.27;;;;;;;1.33;95.96;96090.94;5023387;28;20076;-53
2021/01/07 08:31:54;;;;;;;30.13;13.95;;;;;;;1.42;94.56;96093.78;5033992;28;20123;-57
2021/01/07 08:34:23;;;;;;;30.85;14.18;;;;;;;1.47;94.22;96090.06;5007042;28;20081;-54
2021/01/07 08:36:52;;;;;;;34.40;17.15;;;;;;;1.70;92.95;96093.78;5016426;28;20427;-58
2021/01/07 08:39:19;;;;;;;33.05;15.90;;;;;;;1.91;91.68;96100.19;5027468;28;20051;-60
2021/01/07 08:41:46;;;;;;;32.85;15.00;;;;;;;1.80;90.95;96085.28;5035177;28;20064;-55
2021/01/07 08:44:14;;;;;;;33.83;16.63;;;;;;;2.11;89.33;96091.06;5025130;28;20075;-58
2021/01/07 08:46:42;;;;;;;29.48;15.95;;;;;;;2.14;89.37;96093.47;5028446;28;20042;-57
2021/01/07 08:49:11;;;;;;;32.72;15.75;;;;;;;2.24;89.15;96091.09;5009262;28;20037;-59
2021/01/07 08:51:39;;;;;;;28.88;13.45;;;;;;;2.07;88.67;96100.84;5022565;28;20412;-59
2021/01/07 08:54:12;;;;;;;34.88;16.98;;;;;;;2.06;88.80;96099.16;5042486;28;20041;-58
2021/01/07 08:56:40;;;;;;;30.83;16.90;;;;;;;1.97;89.43;96096.34;5012649;28;20049;-58
2021/01/07 08:59:31;;;;;;;32.47;15.20;;;;;;;2.09;87.99;96100.72;5032644;28;20453;-59
2021/01/07 09:02:17;;;;;;;33.22;16.48;;;;;;;2.44;86.40;96087.13;5016592;28;20061;-59
2021/01/07 09:04:44;;;;;;;34.00;15.55;;;;;;;2.64;86.33;96088.38;4991640;28;20060;-53
2021/01/07 09:07:18;;;;;;;30.60;15.23;;;;;;;2.47;86.01;96082.53;5010956;28;20033;-54
2021/01/07 09:09:48;;;;;;;34.20;16.05;;;;;;;2.42;85.51;96087.25;5013753;28;20050;-57
2021/01/07 09:12:22;;;;;;;33.00;19.38;;;;;;;2.42;85.57;96079.44;5035084;28;20414;-59
2021/01/07 09:14:52;;;;;;;35.78;20.63;;;;;;;2.47;86.56;96077.34;5015928;28;20505;-59
2021/01/07 09:17:20;;;;;;;34.55;20.08;;;;;;;2.74;84.75;96073.78;5045135;28;20933;-59
2021/01/07 09:19:48;;;;;;;35.40;20.58;;;;;;;2.64;84.65;96076.19;5022433;28;20857;-59
2021/01/07 09:22:19;;;;;;;35.43;20.47;;;;;;;2.49;84.62;96079.84;5015697;28;20749;-58
2021/01/07 09:24:48;;;;;;;33.55;21.23;;;;;;;2.72;84.97;96075.66;5036469;28;20425;-56
2021/01/07 09:27:16;;;;;;;35.65;21.77;;;;;;;2.71;84.95;96074.81;5032762;28;20425;-55
2021/01/07 09:29:43;;;;;;;35.10;20.48;;;;;;;2.66;84.71;96070.91;5019691;28;20468;-55
2021/01/07 09:32:11;;;;;;;34.75;17.98;;;;;;;2.65;84.74;96075.28;5029345;28;20036;-57
2021/01/07 09:34:39;;;;;;;32.30;16.10;;;;;;;2.81;84.18;96082.84;5031309;28;20495;-58
2021/01/07 09:37:08;;;;;;;33.65;15.27;;;;;;;3.04;82.89;96082.06;5027152;28;20045;-57
2021/01/07 09:39:35;;;;;;;36.08;20.25;;;;;;;2.93;83.46;96087.22;5020114;28;20978;-57
2021/01/07 09:42:04;;;;;;;33.78;19.80;;;;;;;2.98;83.05;96082.50;4998532;28;20414;-56
2021/01/07 09:44:32;;;;;;;35.38;20.48;;;;;;;3.09;82.31;96081.75;5020143;28;20406;-54
2021/01/07 09:46:59;;;;;;;32.30;19.05;;;;;;;2.93;83.13;96076.78;4985071;28;20502;-56
2021/01/07 09:49:27;;;;;;;33.80;19.73;;;;;;;2.90;84.77;96079.59;4987913;28;20432;-54
2021/01/07 09:51:54;;;;;;;34.20;19.55;;;;;;;2.79;84.26;96077.75;5006373;28;20473;-54
2021/01/07 09:54:23;;;;;;;33.50;19.73;;;;;;;3.08;83.23;96077.47;5045522;28;20785;-53
2021/01/07 09:56:51;;;;;;;33.28;19.40;;;;;;;2.82;83.23;96076.69;4999561;28;20465;-59
2021/01/07 09:59:20;;;;;;;35.92;20.70;;;;;;;3.15;83.27;96070.06;5040616;28;20507;-60
2021/01/07 10:01:48;;;;;;;34.35;20.75;;;;;;;3.53;81.74;96073.34;5039848;28;20423;-57
2021/01/07 10:04:15;;;;;;;33.25;19.88;;;;;;;3.40;79.95;96071.75;5033185;28;20457;-56
2021/01/07 10:06:42;;;;;;;32.65;19.98;;;;;;;3.49;79.71;96071.09;4997989;28;20440;-56
2021/01/07 10:09:09;;;;;;;33.47;18.40;;;;;;;3.58;79.56;96060.00;5017786;28;20399;-57
2021/01/07 10:11:37;;;;;;;34.15;18.13;;;;;;;4.20;77.68;96051.09;5047951;28;20119;-54
2021/01/07 10:14:04;;;;;;;31.67;17.30;;;;;;;3.73;77.91;96061.47;5049657;28;20078;-57
2021/01/07 10:16:32;;;;;;;30.42;15.82;;;;;;;4.16;77.08;96049.63;5016329;28;20365;-51
2021/01/07 10:19:00;;;;;;;31.98;17.50;;;;;;;3.84;78.04;96047.66;5030355;28;20061;-54
2021/01/07 10:21:29;;;;;;;26.35;12.20;;;;;;;3.48;79.89;96051.19;5032930;28;20067;-54
2021/01/07 10:23:56;;;;;;;32.60;16.45;;;;;;;3.75;78.66;96049.19;5018791;28;20045;-55
2021/01/07 10:26:23;;;;;;;33.58;15.63;;;;;;;3.61;79.97;96051.94;5034168;28;20057;-56
2021/01/07 10:29:59;;;;;;;29.88;15.25;;;;;;;3.84;78.58;96050.25;5039351;28;20106;-56
2021/01/07 10:32:27;;;;;;;31.10;16.30;;;;;;;3.07;80.31;96048.00;5041890;28;20033;-53
2021/01/07 10:34:54;;;;;;;31.95;15.32;;;;;;;2.78;82.53;96041.38;5037143;28;20045;-51
2021/01/07 10:37:22;;;;;;;28.15;13.75;;;;;;;2.90;82.82;96050.13;5044926;28;20041;-56
2021/01/07 10:39:51;;;;;;;32.10;15.60;;;;;;;3.26;81.36;96044.06;5051432;28;20044;-50
2021/01/07 10:42:19;;;;;;;36.70;17.13;;;;;;;3.55;80.32;96041.97;5021756;28;20080;-54
2021/01/07 10:44:47;;;;;;;30.50;16.02;;;;;;;3.27;80.53;96041.38;5020143;28;20057;-52
2021/01/07 10:47:16;;;;;;;30.30;15.10;;;;;;;3.73;79.10;96040.63;5013048;28;20045;-50
2021/01/07 10:49:45;;;;;;;32.35;16.27;;;;;;;3.54;79.37;96040.28;5031153;28;20042;-53
2021/01/07 10:52:33;;;;;;;31.98;14.55;;;;;;;3.79;78.81;96042.78;5003085;28;20061;-53
2021/01/07 10:55:10;;;;;;;36.70;19.15;;;;;;;3.69;78.12;96035.75;5018133;28;20069;-52
2021/01/07 10:58:01;;;;;;;31.65;15.57;;;;;;;3.77;78.17;96025.56;5046545;28;20506;-56
2021/01/07 11:00:39;;;;;;;37.85;18.88;;;;;;;4.50;76.03;96020.00;5013462;28;20103;-57
2021/01/07 11:03:48;;;;;;;34.67;17.13;;;;;;;5.13;72.37;96020.34;5030911;28;20046;-54
2021/01/07 11:06:18;;;;;;;30.20;16.40;;;;;;;5.04;70.39;96020.22;5057201;28;20037;-54
2021/01/07 11:08:48;;;;;;;28.30;15.13;;;;;;;4.19;72.68;96023.31;5037861;28;20060;-56
2021/01/07 11:11:21;;;;;;;32.65;18.42;;;;;;;4.56;74.17;96016.09;5037181;28;20048;-51
2021/01/07 11:13:52;;;;;;;32.13;16.90;;;;;;;4.24;74.83;96019.41;5054704;28;20041;-53
2021/01/07 11:16:23;;;;;;;31.27;15.82;;;;;;;3.62;76.43;96019.72;5034659;28;20053;-56
2021/01/07 11:18:55;;;;;;;29.77;15.48;;;;;;;3.47;78.05;96018.22;5041923;28;20038;-55
2021/01/07 11:21:46;;;;;;;31.85;15.65;;;;;;;3.68;77.47;96008.00;5035751;28;20037;-55
2021/01/07 11:24:13;;;;;;;32.08;15.20;;;;;;;4.09;75.11;96007.50;5037978;28;20048;-56
2021/01/07 11:26:41;;;;;;;32.60;17.73;;;;;;;4.54;74.71;95994.50;5034225;28;20156;-54
2021/01/07 11:29:08;;;;;;;30.13;17.13;;;;;;;4.66;72.75;96000.56;5031190;28;20466;-51
2021/01/07 11:31:51;;;;;;;29.30;15.93;;;;;;;4.64;72.54;95997.22;5046288;28;20049;-53